sensor_id;sensor_type;location;lat;lon;timestamp;pressure;altitude;pressure_sealevel;temperature;humidity
11444;BME280;5778;47.856;12.154;2022-10-26T00:02:12;96531.09;;;9.56;100.00
11444;BME280;5778;47.856;12.154;2022-10-26T00:04:40;96537.31;;;9.61;100.00
11444;BME280;5778;47.856;12.154;2022-10-26T00:07:08;96540.28;;;9.65;100.00
11444;BME280;5778;47.856;12.154;2022-10-26T00:09:35;96543.19;;;9.63;100.00
11444;BME280;5778;47.856;12.154;2022-10-26T00:12:03;96545.59;;;9.65;100.00
11444;BME280;5778;47.856;12.154;2022-10-26T00:14:30;96545.84;;;9.63;100.00
11444;BME280;5778;47.856;12.154;2022-10-26T00:16:58;96554.19;;;9.55;100.00
11444;BME280;5778;47.856;12.154;2022-10-26T00:19:25;96537.22;;;9.56;100.00
11444;BME280;5778;47.856;12.154;2022-10-26T00:21:53;96506.78;;;9.64;100.00
11444;BME280;5778;47.856;12.154;2022-10-26T00:24:23;96506.72;;;9.75;100.00
11444;BME280;5778;47.856;12.154;2022-10-26T00:26:49;96498.59;;;9.82;100.00
11444;BME280;5778;47.856;12.154;2022-10-26T00:29:17;96505.75;;;9.81;100.00
11444;BME280;5778;47.856;12.154;2022-10-26T00:31:44;96503.34;;;9.80;100.00
11444;BME280;5778;47.856;12.154;2022-10-26T00:34:11;96507.19;;;9.89;100.00
11444;BME280;5778;47.856;12.154;2022-10-26T00:36:38;96524.59;;;9.80;100.00
11444;BME280;5778;47.856;12.154;2022-10-26T00:39:05;96532.94;;;9.88;100.00
11444;BME280;5778;47.856;12.154;2022-10-26T00:41:34;96523.31;;;9.99;100.00
11444;BME280;5778;47.856;12.154;2022-10-26T00:47:01;96512.13;;;10.13;100.00
11444;BME280;5778;47.856;12.154;2022-10-26T00:49:29;96495.94;;;10.15;100.00
11444;BME280;5778;47.856;12.154;2022-10-26T00:51:56;96491.47;;;10.20;100.00
11444;BME280;5778;47.856;12.154;2022-10-26T00:54:24;96499.22;;;10.22;100.00
11444;BME280;5778;47.856;12.154;2022-10-26T00:56:53;96503.31;;;10.29;100.00
11444;BME280;5778;47.856;12.154;2022-10-26T00:59:21;96510.44;;;10.24;100.00
11444;BME280;5778;47.856;12.154;2022-10-26T01:01:50;96495.56;;;10.28;100.00
11444;BME280;5778;47.856;12.154;2022-10-26T01:04:17;96489.28;;;10.34;100.00
11444;BME280;5778;47.856;12.154;2022-10-26T01:06:45;96486.91;;;10.37;100.00
11444;BME280;5778;47.856;12.154;2022-10-26T01:09:12;96496.47;;;10.33;100.00
11444;BME280;5778;47.856;12.154;2022-10-26T01:11:40;96481.88;;;10.36;100.00
11444;BME280;5778;47.856;12.154;2022-10-26T01:14:10;96472.34;;;10.40;100.00
11444;BME280;5778;47.856;12.154;2022-10-26T01:16:47;96478.00;;;10.43;100.00
11444;BME280;5778;47.856;12.154;2022-10-26T01:20:00;96494.66;;;10.39;100.00
11444;BME280;5778;47.856;12.154;2022-10-26T01:22:35;96472.09;;;10.41;100.00
11444;BME280;5778;47.856;12.154;2022-10-26T01:25:15;96473.63;;;10.37;100.00
11444;BME280;5778;47.856;12.154;2022-10-26T01:27:44;96484.03;;;10.39;100.00
11444;BME280;5778;47.856;12.154;2022-10-26T01:30:22;96479.63;;;10.28;100.00
11444;BME280;5778;47.856;12.154;2022-10-26T01:33:13;96472.22;;;10.30;100.00
11444;BME280;5778;47.856;12.154;2022-10-26T01:35:49;96465.34;;;10.34;100.00
11444;BME280;5778;47.856;12.154;2022-10-26T01:38:24;96467.47;;;10.32;100.00
11444;BME280;5778;47.856;12.154;2022-10-26T01:40:58;96473.97;;;10.41;100.00
11444;BME280;5778;47.856;12.154;2022-10-26T01:43:32;96480.06;;;10.41;100.00
11444;BME280;5778;47.856;12.154;2022-10-26T01:46:03;96478.78;;;10.44;100.00
11444;BME280;5778;47.856;12.154;2022-10-26T01:48:32;96481.44;;;10.44;100.00
11444;BME280;5778;47.856;12.154;2022-10-26T01:51:01;96493.66;;;10.45;100.00
11444;BME280;5778;47.856;12.154;2022-10-26T01:53:29;96485.25;;;10.31;100.00
11444;BME280;5778;47.856;12.154;2022-10-26T01:55:57;96484.25;;;10.16;100.00
11444;BME280;5778;47.856;12.154;2022-10-26T01:58:43;96482.66;;;10.15;100.00
11444;BME280;5778;47.856;12.154;2022-10-26T02:01:41;96483.06;;;10.07;100.00
11444;BME280;5778;47.856;12.154;2022-10-26T02:04:21;96486.75;;;10.06;100.00
11444;BME280;5778;47.856;12.154;2022-10-26T02:07:00;96498.53;;;10.10;100.00
11444;BME280;5778;47.856;12.154;2022-10-26T02:09:34;96489.66;;;10.04;100.00
11444;BME280;5778;47.856;12.154;2022-10-26T02:12:10;96492.38;;;10.09;100.00
11444;BME280;5778;47.856;12.154;2022-10-26T02:14:45;96496.91;;;10.09;100.00
11444;BME280;5778;47.856;12.154;2022-10-26T02:17:20;96503.75;;;10.05;100.00
11444;BME280;5778;47.856;12.154;2022-10-26T02:19:51;96498.22;;;10.06;100.00
11444;BME280;5778;47.856;12.154;2022-10-26T02:22:26;96503.84;;;10.10;100.00
11444;BME280;5778;47.856;12.154;2022-10-26T02:24:55;96505.94;;;10.08;100.00
11444;BME280;5778;47.856;12.154;2022-10-26T02:27:25;96481.03;;;10.14;100.00
11444;BME280;5778;47.856;12.154;2022-10-26T02:29:55;96466.78;;;10.20;100.00
11444;BME280;5778;47.856;12.154;2022-10-26T02:32:27;96505.09;;;10.24;100.00
11444;BME280;5778;47.856;12.154;2022-10-26T02:34:58;96519.09;;;10.19;100.00
11444;BME280;5778;47.856;12.154;2022-10-26T02:37:29;96506.44;;;10.26;100.00
11444;BME280;5778;47.856;12.154;2022-10-26T02:39:59;96513.19;;;10.34;100.00
11444;BME280;5778;47.856;12.154;2022-10-26T02:42:28;96493.56;;;10.35;100.00
11444;BME280;5778;47.856;12.154;2022-10-26T02:44:59;96498.38;;;10.38;100.00
11444;BME280;5778;47.856;12.154;2022-10-26T02:47:30;96488.28;;;10.40;100.00
11444;BME280;5778;47.856;12.154;2022-10-26T02:49:57;96503.75;;;10.43;100.00
11444;BME280;5778;47.856;12.154;2022-10-26T02:55:16;96500.56;;;10.41;100.00
11444;BME280;5778;47.856;12.154;2022-10-26T02:57:49;96514.56;;;10.36;100.00
11444;BME280;5778;47.856;12.154;2022-10-26T03:00:19;96522.81;;;10.35;100.00
11444;BME280;5778;47.856;12.154;2022-10-26T03:02:52;96529.22;;;10.39;100.00
11444;BME280;5778;47.856;12.154;2022-10-26T03:05:24;96532.94;;;10.38;100.00
11444;BME280;5778;47.856;12.154;2022-10-26T03:07:52;96551.06;;;10.41;100.00
11444;BME280;5778;47.856;12.154;2022-10-26T03:10:20;96563.91;;;10.49;100.00
11444;BME280;5778;47.856;12.154;2022-10-26T03:12:47;96563.38;;;10.47;100.00
11444;BME280;5778;47.856;12.154;2022-10-26T03:15:15;96548.50;;;10.51;100.00
11444;BME280;5778;47.856;12.154;2022-10-26T03:17:42;96558.66;;;10.54;100.00
11444;BME280;5778;47.856;12.154;2022-10-26T03:20:11;96556.91;;;10.81;100.00
11444;BME280;5778;47.856;12.154;2022-10-26T03:22:39;96549.53;;;10.88;100.00
11444;BME280;5778;47.856;12.154;2022-10-26T03:25:07;96549.34;;;10.94;100.00
11444;BME280;5778;47.856;12.154;2022-10-26T03:27:34;96553.38;;;10.97;100.00
11444;BME280;5778;47.856;12.154;2022-10-26T03:30:03;96545.69;;;11.00;100.00
11444;BME280;5778;47.856;12.154;2022-10-26T03:32:30;96556.63;;;11.04;100.00
11444;BME280;5778;47.856;12.154;2022-10-26T03:34:57;96547.97;;;11.13;100.00
11444;BME280;5778;47.856;12.154;2022-10-26T03:37:26;96524.88;;;11.19;100.00
11444;BME280;5778;47.856;12.154;2022-10-26T03:39:53;96497.75;;;11.22;100.00
11444;BME280;5778;47.856;12.154;2022-10-26T03:42:21;96493.22;;;11.22;100.00
11444;BME280;5778;47.856;12.154;2022-10-26T03:44:48;96499.84;;;11.20;100.00
11444;BME280;5778;47.856;12.154;2022-10-26T03:47:16;96496.66;;;11.18;100.00
11444;BME280;5778;47.856;12.154;2022-10-26T03:49:43;96482.53;;;11.17;100.00
11444;BME280;5778;47.856;12.154;2022-10-26T03:52:11;96487.06;;;11.17;100.00
11444;BME280;5778;47.856;12.154;2022-10-26T03:54:39;96492.63;;;11.15;100.00
11444;BME280;5778;47.856;12.154;2022-10-26T03:57:07;96489.72;;;11.17;100.00
11444;BME280;5778;47.856;12.154;2022-10-26T03:59:34;96482.25;;;11.14;100.00
11444;BME280;5778;47.856;12.154;2022-10-26T04:02:07;96486.72;;;11.08;100.00
11444;BME280;5778;47.856;12.154;2022-10-26T04:04:36;96487.69;;;11.02;100.00
11444;BME280;5778;47.856;12.154;2022-10-26T04:07:03;96492.59;;;10.89;100.00
11444;BME280;5778;47.856;12.154;2022-10-26T04:09:31;96497.91;;;10.89;100.00
11444;BME280;5778;47.856;12.154;2022-10-26T04:12:16;96491.34;;;10.96;100.00
11444;BME280;5778;47.856;12.154;2022-10-26T04:14:43;96486.59;;;10.98;100.00
11444;BME280;5778;47.856;12.154;2022-10-26T04:17:10;96482.06;;;10.99;100.00
11444;BME280;5778;47.856;12.154;2022-10-26T04:19:38;96497.25;;;10.98;100.00
11444;BME280;5778;47.856;12.154;2022-10-26T04:22:39;96487.59;;;10.92;100.00
11444;BME280;5778;47.856;12.154;2022-10-26T04:25:10;96480.16;;;10.94;100.00
11444;BME280;5778;47.856;12.154;2022-10-26T04:27:39;96489.75;;;10.95;100.00
11444;BME280;5778;47.856;12.154;2022-10-26T04:30:07;96485.25;;;10.96;100.00
11444;BME280;5778;47.856;12.154;2022-10-26T04:32:34;96476.69;;;10.94;100.00
11444;BME280;5778;47.856;12.154;2022-10-26T04:35:03;96483.06;;;10.93;100.00
11444;BME280;5778;47.856;12.154;2022-10-26T04:37:30;96482.97;;;10.83;100.00
11444;BME280;5778;47.856;12.154;2022-10-26T04:39:57;96482.72;;;10.84;100.00
11444;BME280;5778;47.856;12.154;2022-10-26T04:42:24;96481.13;;;10.83;100.00
11444;BME280;5778;47.856;12.154;2022-10-26T04:44:53;96471.84;;;10.86;100.00
11444;BME280;5778;47.856;12.154;2022-10-26T04:47:20;96480.81;;;10.80;100.00
11444;BME280;5778;47.856;12.154;2022-10-26T04:49:47;96473.84;;;10.74;100.00
11444;BME280;5778;47.856;12.154;2022-10-26T04:52:15;96479.16;;;10.74;100.00
11444;BME280;5778;47.856;12.154;2022-10-26T04:54:42;96483.66;;;10.73;100.00
11444;BME280;5778;47.856;12.154;2022-10-26T04:57:09;96492.16;;;10.70;100.00
11444;BME280;5778;47.856;12.154;2022-10-26T04:59:36;96500.31;;;10.64;100.00
11444;BME280;5778;47.856;12.154;2022-10-26T05:04:31;96496.09;;;10.68;100.00
11444;BME280;5778;47.856;12.154;2022-10-26T05:06:58;96497.72;;;10.69;100.00
11444;BME280;5778;47.856;12.154;2022-10-26T05:09:25;96500.44;;;10.74;100.00
11444;BME280;5778;47.856;12.154;2022-10-26T05:11:52;96498.78;;;10.73;100.00
11444;BME280;5778;47.856;12.154;2022-10-26T05:14:19;96507.34;;;10.75;100.00
11444;BME280;5778;47.856;12.154;2022-10-26T05:16:47;96506.78;;;10.73;100.00
11444;BME280;5778;47.856;12.154;2022-10-26T05:19:17;96510.56;;;10.77;100.00
11444;BME280;5778;47.856;12.154;2022-10-26T05:21:45;96521.25;;;10.82;100.00
11444;BME280;5778;47.856;12.154;2022-10-26T05:24:13;96533.25;;;10.84;100.00
11444;BME280;5778;47.856;12.154;2022-10-26T05:26:40;96540.19;;;10.85;100.00
11444;BME280;5778;47.856;12.154;2022-10-26T05:29:08;96551.88;;;10.84;100.00
11444;BME280;5778;47.856;12.154;2022-10-26T05:31:35;96566.84;;;10.90;100.00
11444;BME280;5778;47.856;12.154;2022-10-26T05:34:02;96572.09;;;10.85;100.00
11444;BME280;5778;47.856;12.154;2022-10-26T05:36:31;96584.56;;;10.80;100.00
11444;BME280;5778;47.856;12.154;2022-10-26T05:38:58;96598.47;;;10.87;100.00
11444;BME280;5778;47.856;12.154;2022-10-26T05:41:25;96599.03;;;10.89;100.00
11444;BME280;5778;47.856;12.154;2022-10-26T05:43:53;96607.56;;;10.91;100.00
11444;BME280;5778;47.856;12.154;2022-10-26T05:46:20;96620.06;;;10.90;100.00
11444;BME280;5778;47.856;12.154;2022-10-26T05:48:47;96619.81;;;10.92;100.00
11444;BME280;5778;47.856;12.154;2022-10-26T05:51:14;96644.59;;;10.92;100.00
11444;BME280;5778;47.856;12.154;2022-10-26T05:53:43;96653.66;;;10.96;100.00
11444;BME280;5778;47.856;12.154;2022-10-26T05:56:16;96663.00;;;10.99;100.00
11444;BME280;5778;47.856;12.154;2022-10-26T05:58:45;96669.78;;;11.06;100.00
11444;BME280;5778;47.856;12.154;2022-10-26T06:01:21;96647.88;;;10.99;100.00
11444;BME280;5778;47.856;12.154;2022-10-26T06:04:01;96654.56;;;11.02;100.00
11444;BME280;5778;47.856;12.154;2022-10-26T06:06:38;96665.75;;;11.04;100.00
11444;BME280;5778;47.856;12.154;2022-10-26T06:09:08;96670.34;;;11.30;100.00
11444;BME280;5778;47.856;12.154;2022-10-26T06:11:37;96681.41;;;11.22;100.00
11444;BME280;5778;47.856;12.154;2022-10-26T06:14:04;96679.28;;;11.62;100.00
11444;BME280;5778;47.856;12.154;2022-10-26T06:16:36;96680.88;;;11.63;100.00
11444;BME280;5778;47.856;12.154;2022-10-26T06:19:18;96699.09;;;11.71;100.00
11444;BME280;5778;47.856;12.154;2022-10-26T06:22:00;96698.25;;;11.92;100.00
11444;BME280;5778;47.856;12.154;2022-10-26T06:24:35;96709.06;;;12.07;100.00
11444;BME280;5778;47.856;12.154;2022-10-26T06:29:44;96701.94;;;12.12;100.00
11444;BME280;5778;47.856;12.154;2022-10-26T06:32:14;96714.84;;;12.25;100.00
11444;BME280;5778;47.856;12.154;2022-10-26T06:34:44;96693.56;;;12.30;100.00
11444;BME280;5778;47.856;12.154;2022-10-26T06:37:12;96693.78;;;12.24;100.00
11444;BME280;5778;47.856;12.154;2022-10-26T06:39:43;96699.06;;;12.19;100.00
11444;BME280;5778;47.856;12.154;2022-10-26T06:42:12;96710.53;;;12.19;100.00
11444;BME280;5778;47.856;12.154;2022-10-26T06:44:39;96723.88;;;12.19;100.00
11444;BME280;5778;47.856;12.154;2022-10-26T06:47:11;96732.41;;;12.21;100.00
11444;BME280;5778;47.856;12.154;2022-10-26T06:49:56;96737.00;;;12.26;100.00
11444;BME280;5778;47.856;12.154;2022-10-26T06:52:30;96735.94;;;12.27;100.00
11444;BME280;5778;47.856;12.154;2022-10-26T06:55:02;96737.56;;;12.28;100.00
11444;BME280;5778;47.856;12.154;2022-10-26T06:57:33;96746.63;;;12.27;100.00
11444;BME280;5778;47.856;12.154;2022-10-26T07:00:03;96753.25;;;12.24;100.00
11444;BME280;5778;47.856;12.154;2022-10-26T07:02:31;96755.25;;;12.12;100.00
11444;BME280;5778;47.856;12.154;2022-10-26T07:04:58;96749.66;;;12.14;100.00
11444;BME280;5778;47.856;12.154;2022-10-26T07:07:26;96758.53;;;12.19;100.00
11444;BME280;5778;47.856;12.154;2022-10-26T07:09:54;96756.34;;;12.16;100.00
11444;BME280;5778;47.856;12.154;2022-10-26T07:12:23;96748.66;;;12.20;100.00
11444;BME280;5778;47.856;12.154;2022-10-26T07:14:50;96754.84;;;12.25;100.00
11444;BME280;5778;47.856;12.154;2022-10-26T07:17:17;96747.41;;;12.27;100.00
11444;BME280;5778;47.856;12.154;2022-10-26T07:19:44;96738.63;;;12.27;100.00
11444;BME280;5778;47.856;12.154;2022-10-26T07:22:11;96732.75;;;12.30;100.00
11444;BME280;5778;47.856;12.154;2022-10-26T07:24:38;96728.38;;;12.45;100.00
11444;BME280;5778;47.856;12.154;2022-10-26T07:27:06;96729.22;;;12.51;100.00
11444;BME280;5778;47.856;12.154;2022-10-26T07:29:34;96734.09;;;12.59;100.00
11444;BME280;5778;47.856;12.154;2022-10-26T07:32:01;96735.50;;;12.66;100.00
11444;BME280;5778;47.856;12.154;2022-10-26T07:34:28;96735.81;;;12.70;100.00
11444;BME280;5778;47.856;12.154;2022-10-26T07:36:57;96727.78;;;12.70;100.00
11444;BME280;5778;47.856;12.154;2022-10-26T07:39:24;96732.94;;;12.81;100.00
11444;BME280;5778;47.856;12.154;2022-10-26T07:41:51;96731.66;;;12.89;100.00
11444;BME280;5778;47.856;12.154;2022-10-26T07:44:18;96730.75;;;13.05;100.00
11444;BME280;5778;47.856;12.154;2022-10-26T07:46:47;96723.28;;;13.12;100.00
11444;BME280;5778;47.856;12.154;2022-10-26T07:49:15;96722.19;;;13.03;100.00
11444;BME280;5778;47.856;12.154;2022-10-26T07:51:43;96717.91;;;13.07;100.00
11444;BME280;5778;47.856;12.154;2022-10-26T07:54:10;96723.38;;;13.22;100.00
11444;BME280;5778;47.856;12.154;2022-10-26T07:56:36;96728.72;;;13.22;100.00
11444;BME280;5778;47.856;12.154;2022-10-26T07:59:04;96732.09;;;13.07;100.00
11444;BME280;5778;47.856;12.154;2022-10-26T08:01:31;96726.75;;;13.07;100.00
11444;BME280;5778;47.856;12.154;2022-10-26T08:03:59;96733.63;;;12.98;100.00
11444;BME280;5778;47.856;12.154;2022-10-26T08:06:26;96723.88;;;13.14;100.00
11444;BME280;5778;47.856;12.154;2022-10-26T08:08:53;96721.25;;;13.29;100.00
11444;BME280;5778;47.856;12.154;2022-10-26T08:11:21;96718.75;;;13.59;100.00
11444;BME280;5778;47.856;12.154;2022-10-26T08:13:50;96726.03;;;13.73;100.00
11444;BME280;5778;47.856;12.154;2022-10-26T08:16:18;96719.88;;;13.68;100.00
11444;BME280;5778;47.856;12.154;2022-10-26T08:18:46;96706.81;;;13.76;100.00
11444;BME280;5778;47.856;12.154;2022-10-26T08:21:16;96711.16;;;13.97;100.00
11444;BME280;5778;47.856;12.154;2022-10-26T08:23:43;96698.59;;;14.13;100.00
11444;BME280;5778;47.856;12.154;2022-10-26T08:26:11;96689.56;;;14.29;100.00
11444;BME280;5778;47.856;12.154;2022-10-26T08:28:39;96681.81;;;14.47;100.00
11444;BME280;5778;47.856;12.154;2022-10-26T08:31:07;96680.75;;;14.63;100.00
11444;BME280;5778;47.856;12.154;2022-10-26T08:33:34;96664.41;;;14.75;100.00
11444;BME280;5778;47.856;12.154;2022-10-26T08:36:03;96675.09;;;14.90;100.00
11444;BME280;5778;47.856;12.154;2022-10-26T08:38:33;96669.22;;;14.93;100.00
11444;BME280;5778;47.856;12.154;2022-10-26T08:41:06;96678.03;;;14.83;100.00
11444;BME280;5778;47.856;12.154;2022-10-26T08:43:39;96672.94;;;14.92;100.00
11444;BME280;5778;47.856;12.154;2022-10-26T08:46:11;96673.47;;;15.04;100.00
11444;BME280;5778;47.856;12.154;2022-10-26T08:48:42;96676.16;;;15.09;100.00
11444;BME280;5778;47.856;12.154;2022-10-26T08:55:22;96673.97;;;15.21;100.00
11444;BME280;5778;47.856;12.154;2022-10-26T08:57:51;96666.44;;;15.23;100.00
11444;BME280;5778;47.856;12.154;2022-10-26T09:00:20;96668.03;;;15.29;100.00
11444;BME280;5778;47.856;12.154;2022-10-26T09:02:49;96666.47;;;15.33;100.00
11444;BME280;5778;47.856;12.154;2022-10-26T09:05:19;96667.50;;;15.32;100.00
11444;BME280;5778;47.856;12.154;2022-10-26T09:07:52;96660.25;;;15.27;100.00
11444;BME280;5778;47.856;12.154;2022-10-26T09:10:34;96678.25;;;15.22;100.00
11444;BME280;5778;47.856;12.154;2022-10-26T09:13:33;96683.66;;;14.97;100.00
11444;BME280;5778;47.856;12.154;2022-10-26T09:16:06;96691.16;;;15.05;100.00
11444;BME280;5778;47.856;12.154;2022-10-26T09:18:45;96677.75;;;15.15;100.00
11444;BME280;5778;47.856;12.154;2022-10-26T09:21:29;96677.19;;;15.33;100.00
11444;BME280;5778;47.856;12.154;2022-10-26T09:27:47;96668.97;;;15.68;100.00
11444;BME280;5778;47.856;12.154;2022-10-26T09:30:19;96668.16;;;15.77;100.00
11444;BME280;5778;47.856;12.154;2022-10-26T09:33:15;96667.78;;;15.94;100.00
11444;BME280;5778;47.856;12.154;2022-10-26T09:35:46;96667.63;;;16.19;100.00
11444;BME280;5778;47.856;12.154;2022-10-26T09:38:22;96663.97;;;16.48;100.00
11444;BME280;5778;47.856;12.154;2022-10-26T09:40:54;96667.25;;;16.74;100.00
11444;BME280;5778;47.856;12.154;2022-10-26T09:43:27;96671.72;;;17.12;100.00
11444;BME280;5778;47.856;12.154;2022-10-26T09:45:55;96664.59;;;17.49;100.00
11444;BME280;5778;47.856;12.154;2022-10-26T09:48:28;96670.41;;;17.56;100.00
11444;BME280;5778;47.856;12.154;2022-10-26T09:51:10;96685.13;;;17.64;100.00
11444;BME280;5778;47.856;12.154;2022-10-26T09:53:37;96681.09;;;17.85;100.00
11444;BME280;5778;47.856;12.154;2022-10-26T09:56:21;96676.78;;;18.07;100.00
11444;BME280;5778;47.856;12.154;2022-10-26T09:58:52;96670.56;;;18.07;100.00
11444;BME280;5778;47.856;12.154;2022-10-26T10:01:27;96669.34;;;18.18;100.00
11444;BME280;5778;47.856;12.154;2022-10-26T10:04:17;96673.59;;;18.42;100.00
11444;BME280;5778;47.856;12.154;2022-10-26T10:06:48;96668.34;;;18.51;100.00
11444;BME280;5778;47.856;12.154;2022-10-26T10:09:17;96672.84;;;18.55;100.00
11444;BME280;5778;47.856;12.154;2022-10-26T10:11:47;96673.28;;;18.25;100.00
11444;BME280;5778;47.856;12.154;2022-10-26T10:14:22;96674.78;;;18.13;100.00
11444;BME280;5778;47.856;12.154;2022-10-26T10:16:54;96675.97;;;18.07;100.00
11444;BME280;5778;47.856;12.154;2022-10-26T10:19:23;96686.16;;;18.10;100.00
11444;BME280;5778;47.856;12.154;2022-10-26T10:21:54;96688.84;;;18.10;100.00
11444;BME280;5778;47.856;12.154;2022-10-26T10:24:26;96684.84;;;18.26;100.00
11444;BME280;5778;47.856;12.154;2022-10-26T10:27:00;96688.28;;;18.50;100.00
11444;BME280;5778;47.856;12.154;2022-10-26T10:29:30;96694.09;;;18.57;100.00
11444;BME280;5778;47.856;12.154;2022-10-26T10:31:59;96692.59;;;18.83;100.00
11444;BME280;5778;47.856;12.154;2022-10-26T10:34:29;96691.91;;;18.77;100.00
11444;BME280;5778;47.856;12.154;2022-10-26T10:36:57;96693.97;;;18.80;100.00
11444;BME280;5778;47.856;12.154;2022-10-26T10:39:34;96698.28;;;18.81;100.00
11444;BME280;5778;47.856;12.154;2022-10-26T10:42:02;96703.09;;;18.84;100.00
11444;BME280;5778;47.856;12.154;2022-10-26T10:44:32;96700.53;;;18.93;100.00
11444;BME280;5778;47.856;12.154;2022-10-26T10:47:00;96713.41;;;18.96;100.00
11444;BME280;5778;47.856;12.154;2022-10-26T10:49:29;96716.59;;;18.66;100.00
11444;BME280;5778;47.856;12.154;2022-10-26T10:51:57;96726.53;;;18.52;100.00
11444;BME280;5778;47.856;12.154;2022-10-26T10:54:27;96733.53;;;18.29;100.00
11444;BME280;5778;47.856;12.154;2022-10-26T10:57:02;96735.97;;;18.49;100.00
11444;BME280;5778;47.856;12.154;2022-10-26T10:59:51;96743.53;;;18.66;100.00
11444;BME280;5778;47.856;12.154;2022-10-26T11:02:54;96739.88;;;18.57;100.00
11444;BME280;5778;47.856;12.154;2022-10-26T11:05:49;96736.25;;;18.66;100.00
11444;BME280;5778;47.856;12.154;2022-10-26T11:08:21;96730.88;;;19.30;100.00
11444;BME280;5778;47.856;12.154;2022-10-26T11:10:58;96737.94;;;19.58;100.00
11444;BME280;5778;47.856;12.154;2022-10-26T11:13:29;96742.44;;;19.90;100.00
11444;BME280;5778;47.856;12.154;2022-10-26T11:16:03;96741.44;;;19.99;100.00
11444;BME280;5778;47.856;12.154;2022-10-26T11:18:34;96737.91;;;20.39;100.00
11444;BME280;5778;47.856;12.154;2022-10-26T11:21:14;96733.16;;;20.23;100.00
11444;BME280;5778;47.856;12.154;2022-10-26T11:23:47;96737.44;;;19.97;100.00
11444;BME280;5778;47.856;12.154;2022-10-26T11:26:21;96745.06;;;20.22;100.00
11444;BME280;5778;47.856;12.154;2022-10-26T11:28:56;96744.50;;;20.47;100.00
11444;BME280;5778;47.856;12.154;2022-10-26T11:31:32;96746.88;;;20.84;100.00
11444;BME280;5778;47.856;12.154;2022-10-26T11:34:12;96744.66;;;20.86;100.00
11444;BME280;5778;47.856;12.154;2022-10-26T11:36:44;96745.31;;;21.05;100.00
11444;BME280;5778;47.856;12.154;2022-10-26T11:39:19;96744.44;;;20.96;100.00
11444;BME280;5778;47.856;12.154;2022-10-26T11:41:50;96748.28;;;20.81;100.00
11444;BME280;5778;47.856;12.154;2022-10-26T11:44:28;96751.16;;;20.63;100.00
11444;BME280;5778;47.856;12.154;2022-10-26T11:47:00;96747.38;;;20.50;100.00
11444;BME280;5778;47.856;12.154;2022-10-26T11:49:33;96761.06;;;20.32;100.00
11444;BME280;5778;47.856;12.154;2022-10-26T11:52:10;96770.56;;;20.16;100.00
11444;BME280;5778;47.856;12.154;2022-10-26T11:54:44;96771.53;;;19.93;100.00
11444;BME280;5778;47.856;12.154;2022-10-26T11:57:14;96771.66;;;19.74;100.00
11444;BME280;5778;47.856;12.154;2022-10-26T11:59:46;96765.41;;;19.47;100.00
11444;BME280;5778;47.856;12.154;2022-10-26T12:02:18;96764.06;;;19.31;100.00
11444;BME280;5778;47.856;12.154;2022-10-26T12:04:55;96763.38;;;19.25;100.00
11444;BME280;5778;47.856;12.154;2022-10-26T12:07:28;96766.75;;;19.31;100.00
11444;BME280;5778;47.856;12.154;2022-10-26T12:09:56;96765.19;;;19.43;100.00
11444;BME280;5778;47.856;12.154;2022-10-26T12:12:31;96769.78;;;19.43;100.00
11444;BME280;5778;47.856;12.154;2022-10-26T12:15:13;96773.47;;;19.47;100.00
11444;BME280;5778;47.856;12.154;2022-10-26T12:17:47;96768.50;;;19.67;100.00
11444;BME280;5778;47.856;12.154;2022-10-26T12:20:34;96771.41;;;19.71;100.00
11444;BME280;5778;47.856;12.154;2022-10-26T12:23:12;96776.41;;;19.64;100.00
11444;BME280;5778;47.856;12.154;2022-10-26T12:25:39;96782.28;;;19.66;100.00
11444;BME280;5778;47.856;12.154;2022-10-26T12:28:37;96782.38;;;19.47;100.00
11444;BME280;5778;47.856;12.154;2022-10-26T12:31:40;96789.75;;;19.42;100.00
11444;BME280;5778;47.856;12.154;2022-10-26T12:34:12;96787.78;;;19.47;100.00
11444;BME280;5778;47.856;12.154;2022-10-26T12:36:46;96783.91;;;19.67;100.00
11444;BME280;5778;47.856;12.154;2022-10-26T12:39:28;96787.53;;;20.03;100.00
11444;BME280;5778;47.856;12.154;2022-10-26T12:41:57;96781.84;;;20.04;100.00
11444;BME280;5778;47.856;12.154;2022-10-26T12:44:32;96793.16;;;20.20;100.00
11444;BME280;5778;47.856;12.154;2022-10-26T12:47:00;96786.88;;;20.11;100.00
11444;BME280;5778;47.856;12.154;2022-10-26T12:52:38;96791.03;;;19.76;100.00
11444;BME280;5778;47.856;12.154;2022-10-26T13:04:59;96797.81;;;19.10;100.00
11444;BME280;5778;47.856;12.154;2022-10-26T13:07:35;96809.19;;;19.07;100.00
11444;BME280;5778;47.856;12.154;2022-10-26T13:10:05;96812.69;;;18.89;100.00
11444;BME280;5778;47.856;12.154;2022-10-26T13:12:46;96808.41;;;18.88;100.00
11444;BME280;5778;47.856;12.154;2022-10-26T13:15:21;96808.41;;;18.88;100.00
11444;BME280;5778;47.856;12.154;2022-10-26T13:17:59;96806.66;;;18.78;100.00
11444;BME280;5778;47.856;12.154;2022-10-26T13:20:28;96811.31;;;18.73;100.00
11444;BME280;5778;47.856;12.154;2022-10-26T13:22:58;96820.00;;;18.70;100.00
11444;BME280;5778;47.856;12.154;2022-10-26T13:25:27;96821.72;;;18.61;100.00
11444;BME280;5778;47.856;12.154;2022-10-26T13:28:01;96818.38;;;18.50;100.00
11444;BME280;5778;47.856;12.154;2022-10-26T13:30:41;96819.38;;;18.36;100.00
11444;BME280;5778;47.856;12.154;2022-10-26T13:33:16;96820.97;;;18.13;100.00
11444;BME280;5778;47.856;12.154;2022-10-26T13:35:45;96821.34;;;18.02;100.00
11444;BME280;5778;47.856;12.154;2022-10-26T13:38:18;96826.69;;;18.07;100.00
11444;BME280;5778;47.856;12.154;2022-10-26T13:40:47;96834.59;;;17.98;100.00
11444;BME280;5778;47.856;12.154;2022-10-26T13:43:19;96818.97;;;18.00;100.00
11444;BME280;5778;47.856;12.154;2022-10-26T13:45:53;96835.44;;;17.94;100.00